Latest Weather Observations for Southern Cross Airport

IDW60801

Issued at 11:39 am WST Tuesday 28 April 2015 (issued every 30 minutes, with the page automatically refreshed every 10 minutes)

About weather observations | Map of weather stations | Latest weather observations for WA | Other Formats
Station Details ID: 012320 Name: SOUTHERN CROSS AIRFIELD Lat: -31.24 Lon: 119.36 Height: 347.4 m
Data from the previous 72 hours. | See also: Recent months at Southern Cross Airport
Date/Time
WST
Temp
°C
App
Temp
°C
Dew
Point
Rel
Hum
%
Delta-T
°C
Wind Press
QNH
hPa
Press
MSL
hPa
Rain
since 9 am
mm
Dir
 
Spd
km/h
Gust
km/h
Spd
kts
Gust
kts
28/11:30am 19.9 13.7 4.4 36 7.6 NE 26 33 14 18 1025.2 1024.2 0.0
28/11:00am 20.0 13.8 4.5 36 7.6 NE 26 35 14 19 1025.7 1024.7 0.0
28/10:30am 18.7 11.5 4.8 40 6.8 NE 32 39 17 21 1026.0 1025.0 0.0
28/10:00am 17.8 11.0 5.1 43 6.2 NE 30 39 16 21 1026.9 1025.8 0.0
28/09:30am 16.9 9.7 4.9 45 5.8 NNE 32 43 17 23 1027.2 1026.1 0.0
28/09:00am 16.0 9.7 5.6 50 5.0 NE 28 35 15 19 1027.4 1026.4 0.0
28/08:30am 15.0 9.4 5.5 53 4.6 NE 24 37 13 20 1027.5 1026.5 0.0
28/08:00am 13.5 8.3 5.7 59 3.7 NE 22 32 12 17 1027.4 1026.4 0.0
28/07:30am 11.7 6.9 4.9 63 3.2 NE 19 26 10 14 1027.2 1026.1 0.0
28/07:00am 10.2 6.9 4.4 67 2.6 ENE 11 15 6 8 1027.1 1026.0 0.0
28/06:30am 9.0 5.6 4.0 71 2.2 ENE 11 15 6 8 1027.0 1025.9 0.0
28/06:00am 8.7 5.9 3.3 69 2.3 N 7 11 4 6 1027.2 1026.1 0.0
28/05:30am 10.0 6.2 4.0 66 2.7 NE 13 17 7 9 1026.6 1025.6 0.0
28/05:00am 10.6 6.1 4.1 64 2.9 ENE 17 20 9 11 1026.4 1025.4 0.0
28/04:30am 9.8 6.0 4.0 67 2.6 ENE 13 17 7 9 1026.2 1025.2 0.0
28/04:00am 8.5 7.0 3.1 69 2.3 CALM 0 4 0 2 1026.6 1025.6 0.0
28/03:30am 9.4 6.7 3.6 67 2.6 ENE 7 11 4 6 1026.5 1025.5 0.0
28/03:00am 9.6 6.5 3.4 65 2.7 NE 9 11 5 6 1026.8 1025.7 0.0
28/02:30am 10.7 6.9 3.7 62 3.1 NE 13 17 7 9 1027.1 1026.0 0.0
28/02:00am 10.5 7.4 3.8 63 3.0 N 9 11 5 6 1027.0 1025.9 0.0
28/01:30am 11.7 7.9 4.0 59 3.5 NE 13 17 7 9 1026.8 1025.7 0.0
28/01:00am 12.2 7.3 3.9 57 3.8 ENE 19 26 10 14 1026.5 1025.5 0.0
28/12:30am 12.7 7.6 3.9 55 4.0 ENE 20 26 11 14 1026.6 1025.6 0.0
28/12:00am 12.9 7.4 3.8 54 4.2 ENE 22 28 12 15 1026.6 1025.6 0.0
 
Date/Time
WST
Temp
°C
App
Temp
°C
Dew
Point
Rel
Hum
%
Delta-T
°C
Wind Press
QNH
hPa
Press
MSL
hPa
Rain
since 9 am
mm
Dir
 
Spd
km/h
Gust
km/h
Spd
kts
Gust
kts
27/11:30pm 13.2 8.0 3.8 53 4.3 ENE 20 26 11 14 1027.1 1026.0 0.0
27/11:00pm 13.6 8.7 3.9 52 4.5 ENE 19 24 10 13 1027.0 1025.9 0.0
27/10:30pm 14.0 8.5 4.0 51 4.7 ENE 22 30 12 16 1027.0 1025.9 0.0
27/10:00pm 14.4 9.2 3.8 49 4.9 ENE 20 32 11 17 1027.1 1026.0 0.0
27/09:30pm 14.9 9.3 3.7 47 5.2 ENE 22 30 12 16 1027.1 1026.0 0.0
27/09:00pm 15.0 10.0 3.5 46 5.3 ENE 19 24 10 13 1027.2 1026.1 0.0
27/08:30pm 15.7 10.6 3.2 43 5.8 ENE 19 26 10 14 1026.8 1025.7 0.0
27/08:00pm 15.9 10.8 3.0 42 5.9 ENE 19 22 10 12 1026.6 1025.6 0.0
27/07:30pm 16.7 11.5 2.7 39 6.5 E 19 26 10 14 1026.3 1025.3 0.0
27/07:00pm 17.2 12.0 2.4 37 6.8 E 19 24 10 13 1026.2 1025.2 0.0
27/06:30pm 17.5 13.4 2.3 36 7.0 E 13 19 7 10 1025.9 1024.9 0.0
27/06:00pm 18.3 13.8 2.2 34 7.4 ENE 15 19 8 10 1025.6 1024.6 0.0
27/05:30pm 19.4 14.5 2.3 32 8.0 E 17 20 9 11 1025.6 1024.6 0.0
27/05:00pm 20.3 14.9 2.6 31 8.4 ENE 20 28 11 15 1025.4 1024.4 0.0
27/04:30pm 21.0 15.5 1.8 28 9.0 NE 20 28 11 15 1025.3 1024.3 0.0
27/04:00pm 21.1 15.9 2.4 29 8.9 ENE 19 26 10 14 1025.2 1024.2 0.0
27/03:30pm 21.3 15.2 2.6 29 8.9 ENE 24 32 13 17 1025.2 1024.2 0.0
27/03:00pm 21.6 16.3 2.8 29 9.0 ENE 20 26 11 14 1025.3 1024.3 0.0
27/02:30pm 21.8 16.5 3.0 29 9.1 NE 20 33 11 18 1025.4 1024.4 0.0
27/02:00pm 21.4 17.4 3.1 30 8.8 NNE 13 30 7 16 1025.4 1024.4 0.0
27/01:30pm 20.8 15.8 3.5 32 8.4 ENE 19 28 10 15 1025.6 1024.6 0.0
27/01:00pm 20.4 15.9 4.0 34 8.0 ENE 17 35 9 19 1025.9 1024.9 0.0
27/12:30pm 20.2 15.6 3.9 34 7.9 ENE 17 24 9 13 1026.4 1025.4 0.0
27/12:00pm 19.4 14.5 4.0 36 7.4 ENE 19 32 10 17 1026.9 1025.8 0.0
27/11:30am 19.2 14.3 4.2 37 7.3 ENE 19 32 10 17 1027.4 1026.4 0.0
27/11:00am 18.4 13.3 4.2 39 6.8 ENE 20 26 11 14 1027.8 1026.8 0.0
27/10:30am 18.3 12.4 4.1 39 6.8 NE 24 32 13 17 1028.5 1027.5 0.0
27/10:00am 17.5 11.7 4.5 42 6.2 NE 24 32 13 17 1028.7 1027.7 0.0
27/09:30am 16.8 10.6 4.5 44 5.9 NE 26 33 14 18 1028.7 1027.7 0.0
27/09:00am 16.2 10.1 4.6 46 5.5 NE 26 35 14 19 1028.8 1027.8 0.0
27/08:30am 15.1 8.9 4.5 49 5.0 NE 26 32 14 17 1028.8 1027.8 0.0
27/08:00am 13.6 8.6 4.5 54 4.2 NE 20 26 11 14 1028.5 1027.5 0.0
27/07:30am 11.6 6.5 4.1 60 3.4 ENE 20 26 11 14 1028.2 1027.2 0.0
27/07:00am 10.6 5.5 3.9 63 3.0 ENE 20 24 11 13 1027.8 1026.8 0.0
27/06:30am 10.2 5.2 3.7 64 2.9 ENE 19 24 10 13 1027.6 1026.6 0.0
27/06:00am 9.9 5.7 3.6 65 2.8 ENE 15 20 8 11 1027.6 1026.6 0.0
27/05:30am 9.9 5.7 3.6 65 2.8 ENE 15 19 8 10 1027.5 1026.5 0.0
27/05:00am 10.0 5.8 3.7 65 2.8 ENE 15 19 8 10 1027.3 1026.3 0.0
27/04:30am 10.1 5.9 3.6 64 2.9 ENE 15 19 8 10 1027.3 1026.3 0.0
27/04:00am 10.1 6.2 3.6 64 2.9 ENE 13 17 7 9 1027.2 1026.1 0.0
27/03:30am 11.0 7.1 3.5 60 3.4 ENE 13 17 7 9 1027.2 1026.1 0.0
27/03:00am 11.4 6.8 3.7 59 3.5 ENE 17 22 9 12 1027.2 1026.1 0.0
27/02:30am 11.7 7.1 3.7 58 3.6 E 17 22 9 12 1026.9 1025.8 0.0
27/02:00am 11.9 6.9 3.7 57 3.7 E 19 26 10 14 1026.9 1025.8 0.0
27/01:30am 12.1 7.2 3.9 57 3.7 E 19 26 10 14 1026.9 1025.8 0.0
27/01:00am 12.1 7.5 3.9 57 3.7 E 17 22 9 12 1027.0 1025.9 0.0
27/12:30am 12.1 8.2 3.6 56 3.9 E 13 19 7 10 1027.2 1026.1 0.0
27/12:00am 12.3 8.0 3.5 55 4.0 E 15 20 8 11 1027.1 1026.0 0.0
 
Date/Time
WST
Temp
°C
App
Temp
°C
Dew
Point
Rel
Hum
%
Delta-T
°C
Wind Press
QNH
hPa
Press
MSL
hPa
Rain
since 9 am
mm
Dir
 
Spd
km/h
Gust
km/h
Spd
kts
Gust
kts
26/11:30pm 12.4 7.8 3.6 55 4.0 E 17 20 9 11 1027.1 1026.0 0.0
26/11:00pm 12.6 8.0 3.5 54 4.1 E 17 24 9 13 1027.1 1026.0 0.0
26/10:30pm 12.9 8.3 3.6 53 4.3 E 17 20 9 11 1027.2 1026.1 0.0
26/10:00pm 13.2 9.0 3.6 52 4.4 E 15 20 8 11 1027.3 1026.3 0.0
26/09:30pm 13.6 9.3 3.4 50 4.7 E 15 19 8 10 1027.1 1026.0 0.0
26/09:00pm 14.6 10.0 3.7 48 5.0 E 17 22 9 12 1026.9 1025.8 0.0
26/08:30pm 15.0 10.7 3.5 46 5.3 E 15 22 8 12 1026.8 1025.7 0.0
26/08:00pm 15.1 10.0 3.3 45 5.4 E 19 24 10 13 1026.5 1025.5 0.0
26/07:30pm 15.6 11.3 3.1 43 5.8 E 15 20 8 11 1026.4 1025.4 0.0
26/07:00pm 16.7 12.7 3.0 40 6.3 E 13 19 7 10 1026.2 1025.2 0.0
26/06:30pm 17.1 12.8 3.1 39 6.6 E 15 19 8 10 1025.9 1024.9 0.0
26/06:00pm 17.8 13.4 2.9 37 6.9 ENE 15 19 8 10 1025.5 1024.5 0.0
26/05:30pm 18.8 14.1 3.0 35 7.5 ENE 17 22 9 12 1025.2 1024.2 0.0
26/05:00pm 19.7 14.3 2.6 32 8.0 E 20 30 11 16 1025.1 1024.1 0.0
26/04:30pm 20.3 15.0 3.1 32 8.2 E 20 30 11 16 1025.0 1024.0 0.0
26/04:00pm 20.6 15.5 2.9 31 8.4 ENE 19 28 10 15 1025.0 1024.0 0.0
26/03:30pm 20.8 15.5 3.1 31 8.5 ENE 20 30 11 16 1025.0 1024.0 0.0
26/03:00pm 20.9 15.5 2.7 30 8.7 NE 20 32 11 17 1024.9 1023.9 0.0
26/02:30pm 20.7 15.4 3.0 31 8.5 NE 20 28 11 15 1024.8 1023.8 0.0
26/02:00pm 20.8 16.5 3.5 32 8.3 ENE 15 22 8 12 1025.0 1024.0 0.0
26/01:30pm 20.4 15.2 3.6 33 8.1 ENE 20 32 11 17 1025.2 1024.2 0.0
26/01:00pm 20.1 14.6 3.8 34 7.9 ENE 22 35 12 19 1025.6 1024.6 0.0
26/12:30pm 19.8 14.7 3.9 35 7.7 NE 20 30 11 16 1026.1 1025.1 0.0
26/12:00pm 19.5 13.9 3.6 35 7.6 ENE 22 32 12 17 1026.8 1025.7 0.0
26/11:30am 18.6 13.1 4.0 38 7.0 ENE 22 30 12 16 1027.3 1026.3 0.0
26/11:00am 18.2 12.4 4.4 40 6.6 NE 24 37 13 20 1027.7 1026.7 0.0
26/10:30am 17.8 12.5 5.1 43 6.2 NE 22 32 12 17 1027.8 1026.8 0.0
26/10:00am 16.6 11.4 5.3 47 5.5 ENE 22 30 12 16 1028.1 1027.1 0.0
26/09:30am 16.3 11.5 5.6 49 5.2 ENE 20 28 11 15 1028.4 1027.4 0.0
26/09:00am 15.0 10.4 5.5 53 4.6 ENE 19 28 10 15 1028.3 1027.3 0.0
26/08:30am 13.0 8.7 5.4 60 3.6 E 17 24 9 13 1028.2 1027.2 0.0
26/08:00am 11.4 7.8 5.1 65 2.9 E 13 19 7 10 1028.2 1027.2 0.0
26/07:30am 9.8 6.9 4.8 71 2.3 SE 9 11 5 6 1028.0 1027.0 0.0
26/07:00am 8.4 5.1 4.4 76 1.8 SE 11 15 6 8 1027.8 1026.8 0.0
26/06:30am 7.9 4.1 4.1 77 1.7 SE 13 15 7 8 1027.6 1026.6 0.0
26/06:00am 8.4 4.7 4.2 75 1.9 ESE 13 17 7 9 1027.3 1026.3 0.0
26/05:30am 8.1 4.3 4.1 76 1.8 SSE 13 13 7 7 1027.3 1026.3 0.0
26/05:00am 7.9 4.8 3.6 74 1.9 SSE 9 13 5 7 1027.0 1025.9 0.0
26/04:30am 9.2 4.7 4.2 71 2.2 ESE 17 26 9 14 1026.5 1025.5 0.0
26/04:00am 9.4 4.3 4.2 70 2.3 ESE 20 28 11 15 1026.2 1025.2 0.0
26/03:30am 9.6 4.7 4.2 69 2.4 ESE 19 28 10 15 1026.2 1025.2 0.0
26/03:00am 10.1 5.0 4.3 67 2.6 ESE 20 24 11 13 1026.2 1025.2 0.0
26/02:30am 10.3 5.2 4.2 66 2.8 ESE 20 28 11 15 1026.2 1025.2 0.0
26/02:00am 10.4 5.3 4.1 65 2.8 ESE 20 26 11 14 1026.4 1025.4 0.0
26/01:30am 10.8 5.9 4.0 63 3.1 ESE 19 26 10 14 1026.3 1025.3 0.0
26/01:00am 11.1 6.0 3.9 61 3.2 ESE 20 28 11 15 1026.2 1025.2 0.0
26/12:30am 11.3 6.1 3.6 59 3.5 ESE 20 30 11 16 1026.2 1025.2 0.0
26/12:00am 11.6 6.4 3.4 57 3.7 ESE 20 26 11 14 1026.2 1025.2 0.0
 
Date/Time
WST
Temp
°C
App
Temp
°C
Dew
Point
Rel
Hum
%
Delta-T
°C
Wind Press
QNH
hPa
Press
MSL
hPa
Rain
since 9 am
mm
Dir
 
Spd
km/h
Gust
km/h
Spd
kts
Gust
kts
25/11:30pm 11.5 6.8 3.3 57 3.7 ESE 17 22 9 12 1026.3 1025.3 0.0
25/11:00pm 11.6 7.6 3.1 56 3.8 E 13 15 7 8 1026.3 1025.3 0.0
25/10:30pm 12.4 8.1 3.4 54 4.1 E 15 17 8 9 1026.4 1025.4 0.0
25/10:00pm 12.9 8.2 3.3 52 4.3 ESE 17 22 9 12 1026.3 1025.3 0.0
25/09:30pm 12.9 7.8 3.0 51 4.5 E 19 22 10 12 1026.3 1025.3 0.0
25/09:00pm 13.5 8.4 3.0 49 4.7 ESE 19 24 10 13 1026.3 1025.3 0.0
25/08:30pm 14.0 9.6 2.6 46 5.1 ESE 15 20 8 11 1026.0 1025.0 0.0
25/08:00pm 14.4 9.9 2.3 44 5.4 ESE 15 17 8 9 1025.9 1024.9 0.0
25/07:30pm 14.2 10.5 2.1 44 5.4 ESE 11 15 6 8 1025.7 1024.7 0.0
25/07:00pm 15.0 11.7 2.2 42 5.7 E 9 13 5 7 1025.4 1024.4 0.0
25/06:30pm 16.2 12.4 1.9 38 6.5 E 11 17 6 9 1025.3 1024.3 0.0
25/06:00pm 17.0 12.8 1.8 36 6.9 E 13 17 7 9 1024.9 1023.9 0.0
25/05:30pm 18.0 13.4 1.5 33 7.5 E 15 20 8 11 1024.7 1023.6 0.0
25/05:00pm 18.8 14.2 1.8 32 7.8 E 15 24 8 13 1024.7 1023.6 0.0
25/04:30pm 19.1 13.6 1.6 31 8.1 E 20 28 11 15 1024.5 1023.4 0.0
25/04:00pm 19.5 14.6 1.9 31 8.2 E 17 26 9 14 1024.3 1023.2 0.0
25/03:30pm 19.3 13.8 1.8 31 8.1 E 20 30 11 16 1024.4 1023.3 0.0
25/03:00pm 19.4 13.9 1.9 31 8.1 E 20 28 11 15 1024.5 1023.4 0.0
25/02:30pm 19.1 14.5 1.6 31 8.1 E 15 26 8 14 1024.6 1023.5 0.0
25/02:00pm 19.1 14.1 1.6 31 8.0 ENE 17 28 9 15 1024.7 1023.6 0.0
25/01:30pm 18.4 13.5 2.3 34 7.5 E 17 28 9 15 1024.9 1023.9 0.0
25/01:00pm 18.1 12.6 1.6 33 7.5 E 20 28 11 15 1025.2 1024.2 0.0
25/12:30pm 17.9 12.8 3.0 37 7.0 E 19 28 10 15 1025.6 1024.6 0.0
25/12:00pm 17.5 12.8 3.0 38 6.8 ENE 17 30 9 16 1026.3 1025.3 0.0

Other Formats:

Comma delimited format used in spreadsheet applications
http://www.bom.gov.au/fwo/IDW60801/IDW60801.95634.axf

JavaScript Object Notation format (JSON) in row-major order
http://www.bom.gov.au/fwo/IDW60801/IDW60801.95634.json